Time;durP1;ratioP1;P1;durP2;ratioP2;P2;SDS_P1;SDS_P2;PMS_P1;PMS_P2;Temp;Humidity;BMP_temperature;BMP_pressure;BME280_temperature;BME280_humidity;BME280_pressure;Samples;Min_cycle;Max_cycle;Signal;HPM_P1;HPM_P2
2021/01/27 00:00:48;;;;;;;10.75;5.85;;;8.00;62.50;;;;;;5027117;28;20036;-68
2021/01/27 00:03:14;;;;;;;13.30;5.70;;;7.90;62.40;;;;;;5051160;28;20060;-69
2021/01/27 00:05:43;;;;;;;11.43;6.13;;;7.90;62.50;;;;;;5048707;28;20118;-69
2021/01/27 00:08:09;;;;;;;13.02;5.78;;;7.90;62.40;;;;;;5045238;28;20108;-76
2021/01/27 00:10:35;;;;;;;13.10;6.32;;;7.90;62.40;;;;;;5050683;28;20125;-69
2021/01/27 00:13:02;;;;;;;11.32;5.50;;;7.90;62.40;;;;;;5049532;28;20032;-72
2021/01/27 00:15:32;;;;;;;11.88;5.43;;;7.80;62.30;;;;;;5037729;28;20060;-68
2021/01/27 00:17:59;;;;;;;13.93;6.63;;;7.80;62.30;;;;;;5045864;28;20069;-68
2021/01/27 00:20:26;;;;;;;13.35;6.78;;;7.80;62.30;;;;;;5043766;28;20211;-68
2021/01/27 00:22:53;;;;;;;10.40;6.20;;;7.80;62.30;;;;;;5032094;28;20452;-69
2021/01/27 00:25:21;;;;;;;12.27;7.22;;;7.80;62.40;;;;;;5024667;28;20032;-68
2021/01/27 00:27:47;;;;;;;13.35;6.57;;;7.80;62.00;;;;;;5028082;28;20022;-68
2021/01/27 00:30:22;;;;;;;10.53;6.80;;;7.70;62.10;;;;;;5034571;28;20043;-69
2021/01/27 00:32:48;;;;;;;11.43;6.07;;;7.70;62.10;;;;;;5045495;28;20040;-68
2021/01/27 00:35:16;;;;;;;13.83;7.00;;;7.70;62.10;;;;;;5045543;28;20091;-68
2021/01/27 00:37:42;;;;;;;12.60;6.73;;;7.70;62.00;;;;;;5035344;28;20041;-68
2021/01/27 00:40:08;;;;;;;10.93;5.70;;;7.70;62.00;;;;;;5043065;28;20034;-68
2021/01/27 00:42:34;;;;;;;12.67;6.33;;;7.70;62.10;;;;;;5041521;28;20036;-69
2021/01/27 00:45:00;;;;;;;11.30;6.50;;;7.70;61.80;;;;;;5043746;28;20037;-68
2021/01/27 00:47:26;;;;;;;12.67;6.67;;;7.70;61.80;;;;;;5050528;28;20417;-68
2021/01/27 00:49:51;;;;;;;16.95;6.97;;;7.70;61.80;;;;;;5044840;28;20033;-69
2021/01/27 00:52:17;;;;;;;13.87;6.83;;;7.60;61.70;;;;;;5044708;28;20082;-68
2021/01/27 00:54:42;;;;;;;10.67;6.10;;;7.60;61.80;;;;;;5020743;28;20071;-68
2021/01/27 00:57:08;;;;;;;10.93;6.50;;;7.70;61.70;;;;;;5022162;28;20065;-68
2021/01/27 00:59:34;;;;;;;17.37;7.20;;;7.70;61.50;;;;;;5019932;28;20037;-69
2021/01/27 01:01:59;;;;;;;10.60;6.05;;;7.70;61.60;;;;;;5043080;28;20491;-68
2021/01/27 01:04:25;;;;;;;10.50;6.00;;;7.60;61.20;;;;;;5030846;28;20087;-68
2021/01/27 01:06:50;;;;;;;9.77;5.80;;;7.60;61.40;;;;;;5048665;28;20048;-69
2021/01/27 01:09:16;;;;;;;11.93;5.68;;;7.60;61.10;;;;;;5012512;28;20163;-68
2021/01/27 01:11:42;;;;;;;11.03;5.77;;;7.60;61.10;;;;;;5041871;28;20074;-68
2021/01/27 01:14:07;;;;;;;10.52;5.47;;;7.60;61.40;;;;;;5047401;28;20018;-74
2021/01/27 01:16:33;;;;;;;10.27;5.67;;;7.50;61.20;;;;;;5015742;28;20682;-68
2021/01/27 01:18:59;;;;;;;13.80;6.40;;;7.50;61.60;;;;;;5030078;28;20033;-73
2021/01/27 01:21:24;;;;;;;11.33;6.13;;;7.50;61.70;;;;;;5043910;28;20056;-68
2021/01/27 01:23:50;;;;;;;11.00;6.30;;;7.40;61.80;;;;;;5011950;28;20041;-69
2021/01/27 01:26:15;;;;;;;10.47;5.50;;;7.40;61.70;;;;;;5034966;28;20493;-77
2021/01/27 01:28:41;;;;;;;9.90;5.43;;;7.50;61.70;;;;;;5045137;28;20045;-68
2021/01/27 01:31:07;;;;;;;11.00;5.97;;;7.50;61.60;;;;;;5042184;28;20036;-69
2021/01/27 01:33:33;;;;;;;12.07;6.20;;;7.50;61.60;;;;;;5047997;28;20390;-68
2021/01/27 01:35:59;;;;;;;10.13;5.83;;;7.60;61.60;;;;;;5043671;28;20154;-70
2021/01/27 01:38:26;;;;;;;12.17;5.10;;;7.60;61.60;;;;;;5017924;28;20053;-70
2021/01/27 01:41:04;;;;;;;9.63;5.40;;;7.60;61.60;;;;;;5033085;28;20120;-68
2021/01/27 01:43:33;;;;;;;10.40;5.70;;;7.70;61.60;;;;;;5030600;28;20044;-69
2021/01/27 01:46:02;;;;;;;12.03;5.67;;;7.60;61.40;;;;;;5031350;28;20479;-69
2021/01/27 01:48:40;;;;;;;11.67;5.73;;;7.60;61.60;;;;;;5016898;28;20032;-72
2021/01/27 01:51:15;;;;;;;12.50;5.87;;;7.60;61.80;;;;;;5045482;28;20500;-69
2021/01/27 01:53:41;;;;;;;8.47;4.60;;;7.60;61.80;;;;;;5049509;28;20032;-69
2021/01/27 01:56:10;;;;;;;13.73;5.70;;;7.60;61.80;;;;;;5041418;28;20032;-69
2021/01/27 01:58:37;;;;;;;7.93;5.03;;;7.60;61.90;;;;;;5046404;28;20483;-70
2021/01/27 02:01:03;;;;;;;7.87;4.70;;;7.50;62.00;;;;;;5049421;28;20040;-68
2021/01/27 02:03:32;;;;;;;9.83;5.70;;;7.50;62.10;;;;;;5048430;28;20033;-69
2021/01/27 02:06:07;;;;;;;9.73;5.13;;;7.50;62.30;;;;;;5036394;28;20140;-73
2021/01/27 02:08:35;;;;;;;10.93;6.00;;;7.50;62.30;;;;;;5033800;28;20078;-69
2021/01/27 02:11:01;;;;;;;10.27;4.90;;;7.50;62.40;;;;;;5041760;28;20021;-68
2021/01/27 02:13:56;;;;;;;10.27;5.30;;;7.50;62.50;;;;;;5036163;28;20376;-68
2021/01/27 02:16:40;;;;;;;8.57;5.17;;;7.60;62.60;;;;;;5025768;28;20059;-69
2021/01/27 02:19:31;;;;;;;13.20;5.83;;;7.60;62.80;;;;;;5048422;28;20037;-68
2021/01/27 02:22:22;;;;;;;9.80;5.80;;;7.50;62.80;;;;;;5040409;28;20025;-70
2021/01/27 02:25:18;;;;;;;8.33;4.23;;;7.40;63.30;;;;;;5006868;28;20059;-68
2021/01/27 02:27:50;;;;;;;9.63;5.07;;;7.30;63.50;;;;;;5034701;28;20032;-68
2021/01/27 02:30:39;;;;;;;9.70;5.83;;;7.40;63.60;;;;;;5012465;28;20029;-68
2021/01/27 02:33:30;;;;;;;9.07;4.43;;;7.40;63.70;;;;;;5031516;28;20025;-69
2021/01/27 02:35:55;;;;;;;11.23;5.43;;;7.40;63.80;;;;;;5038141;28;20044;-69
2021/01/27 02:38:31;;;;;;;7.67;4.40;;;7.30;63.70;;;;;;5038260;28;20028;-68
2021/01/27 02:41:15;;;;;;;9.13;5.20;;;7.30;64.00;;;;;;5040771;28;20083;-69
2021/01/27 02:43:45;;;;;;;8.13;4.17;;;7.30;64.20;;;;;;5033683;28;20040;-68
2021/01/27 02:46:34;;;;;;;8.40;4.63;;;7.30;64.30;;;;;;5038584;28;20075;-68
2021/01/27 02:49:00;;;;;;;8.27;4.67;;;7.30;64.20;;;;;;5026423;28;20373;-68
2021/01/27 02:51:50;;;;;;;10.63;5.00;;;7.30;64.40;;;;;;5048236;28;20100;-68
2021/01/27 02:54:22;;;;;;;8.43;5.13;;;7.20;64.60;;;;;;5043090;28;20033;-69
2021/01/27 02:57:03;;;;;;;8.73;4.90;;;7.10;65.10;;;;;;5048394;28;20415;-68
2021/01/27 02:59:35;;;;;;;8.33;4.57;;;7.20;65.10;;;;;;5052086;28;20509;-68
2021/01/27 03:02:10;;;;;;;10.60;4.70;;;7.20;64.90;;;;;;5042394;28;20029;-70
2021/01/27 03:04:41;;;;;;;7.63;4.00;;;7.20;64.90;;;;;;5046875;28;20032;-68
2021/01/27 03:07:08;;;;;;;7.07;3.83;;;7.20;64.90;;;;;;5038967;28;20060;-68
2021/01/27 03:09:46;;;;;;;7.27;4.00;;;7.20;64.80;;;;;;5037916;28;20028;-72
2021/01/27 03:12:11;;;;;;;6.63;3.43;;;7.20;64.80;;;;;;5042438;28;20055;-70
2021/01/27 03:14:37;;;;;;;11.67;4.80;;;7.30;65.10;;;;;;5051876;28;20486;-69
2021/01/27 03:17:08;;;;;;;6.93;3.57;;;7.20;64.90;;;;;;5050551;28;20033;-68
2021/01/27 03:19:38;;;;;;;10.60;4.67;;;7.20;65.10;;;;;;5042400;28;20021;-68
2021/01/27 03:22:21;;;;;;;7.53;3.77;;;7.20;65.30;;;;;;5049707;28;20036;-68
2021/01/27 03:24:53;;;;;;;8.63;3.53;;;7.20;65.30;;;;;;5049018;28;20073;-68
2021/01/27 03:27:24;;;;;;;7.00;3.30;;;7.20;65.30;;;;;;5050468;28;20029;-69
2021/01/27 03:29:55;;;;;;;6.27;3.37;;;7.20;65.40;;;;;;5016300;28;20025;-68
2021/01/27 03:32:39;;;;;;;6.30;3.40;;;7.10;65.60;;;;;;5024167;28;20125;-68
2021/01/27 03:35:14;;;;;;;6.55;3.05;;;7.20;65.50;;;;;;5045524;28;20533;-69
2021/01/27 03:37:49;;;;;;;6.87;2.77;;;7.20;65.70;;;;;;5049979;28;20309;-68
2021/01/27 03:40:18;;;;;;;6.43;3.47;;;7.20;65.50;;;;;;5046447;28;20033;-68
2021/01/27 03:43:27;;;;;;;7.47;2.97;;;7.30;65.40;;;;;;5036560;28;20033;-69
2021/01/27 03:46:21;;;;;;;6.03;3.10;;;7.30;65.30;;;;;;5023173;28;20124;-68
2021/01/27 03:49:05;;;;;;;6.55;3.42;;;7.20;65.40;;;;;;5036573;28;20037;-68
2021/01/27 03:51:36;;;;;;;6.23;2.70;;;7.20;65.70;;;;;;5040343;28;20420;-68
2021/01/27 03:54:06;;;;;;;5.60;2.80;;;7.20;65.90;;;;;;5021696;28;20026;-69
2021/01/27 03:56:45;;;;;;;6.40;2.77;;;7.20;65.90;;;;;;5032709;28;20057;-68
2021/01/27 03:59:11;;;;;;;6.17;3.07;;;7.30;66.20;;;;;;5040345;28;20513;-69
2021/01/27 04:01:46;;;;;;;9.77;4.07;;;7.30;66.40;;;;;;5043012;28;20360;-69
2021/01/27 04:04:11;;;;;;;5.70;3.33;;;7.20;66.60;;;;;;5031872;28;20164;-68
2021/01/27 04:06:37;;;;;;;8.10;3.20;;;7.10;66.90;;;;;;5034173;28;20524;-70
2021/01/27 04:09:03;;;;;;;6.63;3.50;;;7.10;67.30;;;;;;5059023;28;20029;-69
2021/01/27 04:11:28;;;;;;;7.00;3.40;;;7.00;67.60;;;;;;5058839;28;20155;-73
2021/01/27 04:13:55;;;;;;;7.33;3.13;;;6.90;67.70;;;;;;5060821;28;20363;-68
2021/01/27 04:16:20;;;;;;;6.13;2.93;;;6.90;67.90;;;;;;5065115;28;20040;-68
2021/01/27 04:18:46;;;;;;;6.63;3.47;;;7.00;68.00;;;;;;5069996;28;20060;-68
2021/01/27 04:21:12;;;;;;;6.70;3.30;;;6.90;67.90;;;;;;5068390;28;20111;-68
2021/01/27 04:23:37;;;;;;;6.53;3.17;;;7.00;68.00;;;;;;5070629;28;20079;-69
2021/01/27 04:26:03;;;;;;;7.87;3.50;;;7.00;67.90;;;;;;5059421;28;20136;-68
2021/01/27 04:28:29;;;;;;;7.30;3.73;;;7.00;67.70;;;;;;5070335;28;20101;-69
2021/01/27 04:30:54;;;;;;;5.83;2.90;;;7.00;67.60;;;;;;5064600;28;20033;-68
2021/01/27 04:33:20;;;;;;;6.50;3.20;;;7.10;67.70;;;;;;5067350;28;20024;-72
2021/01/27 04:35:46;;;;;;;14.47;4.50;;;7.00;67.50;;;;;;5065332;28;20037;-69
2021/01/27 04:38:11;;;;;;;6.80;3.30;;;7.00;67.60;;;;;;5063235;28;20517;-69
2021/01/27 04:40:40;;;;;;;5.97;3.13;;;7.00;67.70;;;;;;5062771;28;20106;-68
2021/01/27 04:43:20;;;;;;;7.07;3.70;;;7.00;67.90;;;;;;5059240;28;20029;-68
2021/01/27 04:45:50;;;;;;;5.90;3.20;;;7.00;67.70;;;;;;5054109;28;20036;-68
2021/01/27 04:48:25;;;;;;;6.27;3.53;;;7.00;67.80;;;;;;5069849;28;20032;-71
2021/01/27 04:51:01;;;;;;;6.13;3.10;;;7.00;67.80;;;;;;5070819;28;20020;-68
2021/01/27 04:53:52;;;;;;;6.20;3.47;;;7.00;67.80;;;;;;5066124;28;20033;-68
2021/01/27 04:56:59;;;;;;;6.97;3.47;;;7.00;68.00;;;;;;5071072;28;20028;-68
2021/01/27 05:00:01;;;;;;;5.80;3.20;;;7.10;68.00;;;;;;5043828;28;20066;-69
2021/01/27 05:02:43;;;;;;;7.47;3.70;;;7.10;67.80;;;;;;5051233;28;20036;-77
2021/01/27 05:05:13;;;;;;;7.50;3.30;;;7.00;68.00;;;;;;5059749;28;20499;-68
2021/01/27 05:07:45;;;;;;;7.27;3.60;;;7.00;68.30;;;;;;5056598;28;20045;-68
2021/01/27 05:10:22;;;;;;;6.23;3.30;;;7.00;68.40;;;;;;5061079;28;20037;-68
2021/01/27 05:12:55;;;;;;;6.53;3.90;;;6.90;68.40;;;;;;5050231;28;20323;-68
2021/01/27 05:15:23;;;;;;;6.45;3.70;;;6.90;68.70;;;;;;5067455;28;20043;-68
2021/01/27 05:17:50;;;;;;;8.17;4.07;;;6.90;68.80;;;;;;5067287;28;20153;-68
2021/01/27 05:20:18;;;;;;;7.07;3.10;;;7.00;68.90;;;;;;5064735;28;20029;-68
2021/01/27 05:22:44;;;;;;;7.07;3.90;;;6.90;68.90;;;;;;5057157;28;20044;-68
2021/01/27 05:25:40;;;;;;;7.37;3.67;;;7.00;69.10;;;;;;5066712;28;20063;-69
2021/01/27 05:28:12;;;;;;;7.30;3.60;;;7.00;69.10;;;;;;5051999;28;20040;-69
2021/01/27 05:30:54;;;;;;;7.03;3.90;;;6.90;69.30;;;;;;5069588;28;20488;-68
2021/01/27 05:33:20;;;;;;;7.20;3.93;;;6.90;69.40;;;;;;5069646;28;20250;-72
2021/01/27 05:35:46;;;;;;;7.57;3.80;;;6.90;69.60;;;;;;5069531;28;20242;-69
2021/01/27 05:38:25;;;;;;;7.47;4.63;;;6.90;69.70;;;;;;5067099;28;20094;-68
2021/01/27 05:41:02;;;;;;;8.07;4.07;;;7.00;70.10;;;;;;5068837;28;20048;-68
2021/01/27 05:43:28;;;;;;;6.77;3.53;;;6.90;70.10;;;;;;5068330;28;20106;-75
2021/01/27 05:45:53;;;;;;;8.33;4.43;;;6.90;70.70;;;;;;5067578;28;20415;-68
2021/01/27 05:48:51;;;;;;;6.43;4.13;;;6.80;71.00;;;;;;5069179;28;20048;-69
2021/01/27 05:51:38;;;;;;;9.33;4.20;;;6.80;71.50;;;;;;5049086;28;20044;-68
2021/01/27 05:54:25;;;;;;;7.33;4.17;;;6.80;71.60;;;;;;5070102;28;20028;-68
2021/01/27 05:56:53;;;;;;;6.93;4.00;;;6.70;71.70;;;;;;5068597;28;20029;-68
2021/01/27 05:59:25;;;;;;;7.87;4.23;;;6.70;71.70;;;;;;5061760;28;20031;-69
2021/01/27 06:02:01;;;;;;;8.03;3.93;;;6.80;71.90;;;;;;5068660;28;20025;-68
2021/01/27 06:04:28;;;;;;;7.40;4.00;;;6.80;71.80;;;;;;5062737;28;20115;-71
2021/01/27 06:06:58;;;;;;;8.30;4.73;;;6.80;71.70;;;;;;5054489;28;20045;-68
2021/01/27 06:09:45;;;;;;;7.37;4.27;;;6.90;71.60;;;;;;5037614;28;20029;-68
2021/01/27 06:12:19;;;;;;;7.77;4.33;;;6.90;71.70;;;;;;5038935;28;20029;-70
2021/01/27 06:14:49;;;;;;;6.93;4.30;;;6.80;71.70;;;;;;5053634;28;20060;-69
2021/01/27 06:17:26;;;;;;;7.87;4.50;;;6.80;72.00;;;;;;5047710;28;20045;-73
2021/01/27 06:20:21;;;;;;;7.60;4.53;;;6.80;72.20;;;;;;5052004;28;20029;-69
2021/01/27 06:23:05;;;;;;;8.03;4.87;;;6.70;72.50;;;;;;5051912;28;20068;-68
2021/01/27 06:25:59;;;;;;;7.05;4.07;;;6.70;72.90;;;;;;5053106;28;20033;-75
2021/01/27 06:28:56;;;;;;;7.45;4.68;;;6.70;73.00;;;;;;5049800;28;20059;-69
2021/01/27 06:31:36;;;;;;;9.33;5.57;;;6.70;73.20;;;;;;5050277;28;20187;-69
2021/01/27 06:34:11;;;;;;;8.83;4.97;;;6.70;73.30;;;;;;5052607;28;20029;-68
2021/01/27 06:37:17;;;;;;;9.07;4.70;;;6.70;73.60;;;;;;5045602;28;20037;-68
2021/01/27 06:39:50;;;;;;;7.43;4.43;;;6.60;73.70;;;;;;5048914;28;20033;-68
2021/01/27 06:42:30;;;;;;;10.80;6.83;;;6.60;73.80;;;;;;5053292;28;20055;-68
2021/01/27 06:45:28;;;;;;;9.67;5.63;;;6.60;74.20;;;;;;5048035;28;20052;-68
2021/01/27 06:48:25;;;;;;;9.47;5.30;;;6.60;74.30;;;;;;4980600;28;20464;-68
2021/01/27 06:51:24;;;;;;;8.80;6.10;;;6.60;74.70;;;;;;5033406;28;20029;-68
2021/01/27 06:54:08;;;;;;;9.67;5.83;;;6.50;74.90;;;;;;5041441;28;20110;-68
2021/01/27 06:56:42;;;;;;;9.68;5.82;;;6.50;74.80;;;;;;5038078;28;20056;-75
2021/01/27 06:59:37;;;;;;;11.30;7.93;;;6.50;74.60;;;;;;5050767;28;20043;-68
2021/01/27 07:02:14;;;;;;;11.07;7.07;;;6.60;74.50;;;;;;5052785;28;20363;-68
2021/01/27 07:04:48;;;;;;;9.37;5.63;;;6.60;74.50;;;;;;5033330;28;20039;-69
2021/01/27 07:07:33;;;;;;;9.27;6.10;;;6.50;74.50;;;;;;5052328;28;20047;-68
2021/01/27 07:10:26;;;;;;;10.87;7.00;;;6.60;74.60;;;;;;5036095;28;20112;-70
2021/01/27 07:13:37;;;;;;;9.63;6.53;;;6.50;74.60;;;;;;5033235;28;20033;-68
2021/01/27 07:16:07;;;;;;;10.33;5.50;;;6.50;74.60;;;;;;5038356;28;20048;-69
2021/01/27 07:18:49;;;;;;;9.83;6.93;;;6.50;74.80;;;;;;5051880;28;20492;-70
2021/01/27 07:21:30;;;;;;;10.60;6.60;;;6.50;74.80;;;;;;5037233;28;20489;-68
2021/01/27 07:24:09;;;;;;;10.83;5.87;;;6.50;74.90;;;;;;5042381;28;20033;-69
2021/01/27 07:27:03;;;;;;;9.93;6.37;;;6.50;74.90;;;;;;5042453;28;20033;-69
2021/01/27 07:30:07;;;;;;;8.50;5.70;;;6.60;74.90;;;;;;5022646;28;20180;-71
2021/01/27 07:32:50;;;;;;;10.18;6.40;;;6.60;74.80;;;;;;5040431;28;20044;-69
2021/01/27 07:35:22;;;;;;;9.27;6.07;;;6.50;74.80;;;;;;5037230;28;20041;-68
2021/01/27 07:37:57;;;;;;;10.97;6.70;;;6.50;75.00;;;;;;5040743;28;20057;-71
2021/01/27 07:40:27;;;;;;;9.23;6.03;;;6.60;75.10;;;;;;5044987;28;20095;-68
2021/01/27 07:42:59;;;;;;;9.23;5.80;;;6.60;75.00;;;;;;5041344;28;20443;-69
2021/01/27 07:45:30;;;;;;;9.43;7.23;;;6.60;74.90;;;;;;5044712;28;20033;-70
2021/01/27 07:48:27;;;;;;;10.07;6.90;;;6.70;75.00;;;;;;5039539;28;20036;-69
2021/01/27 07:51:19;;;;;;;9.33;7.00;;;6.60;75.10;;;;;;5044161;28;20116;-73
2021/01/27 07:53:48;;;;;;;8.67;6.00;;;6.60;75.20;;;;;;5025238;28;20069;-70
2021/01/27 07:56:16;;;;;;;10.47;6.63;;;6.60;75.40;;;;;;5024424;28;20391;-71
2021/01/27 07:58:47;;;;;;;11.33;6.97;;;6.60;75.50;;;;;;5028310;28;20029;-68
2021/01/27 08:01:24;;;;;;;10.80;7.60;;;6.60;75.80;;;;;;5027814;28;20458;-69
2021/01/27 08:04:04;;;;;;;10.70;7.27;;;6.50;76.10;;;;;;5017775;28;20064;-69
2021/01/27 08:06:47;;;;;;;10.27;6.27;;;6.50;76.20;;;;;;5042274;28;20041;-70
2021/01/27 08:09:24;;;;;;;9.73;6.30;;;6.50;76.30;;;;;;5046499;28;20048;-72
2021/01/27 08:11:50;;;;;;;10.23;6.50;;;6.60;76.10;;;;;;5041189;28;20119;-69
2021/01/27 08:14:54;;;;;;;9.17;6.13;;;6.60;76.00;;;;;;5015792;28;20456;-70
2021/01/27 08:17:45;;;;;;;9.80;6.50;;;6.70;75.80;;;;;;5033773;28;20544;-72
2021/01/27 08:20:31;;;;;;;10.13;6.60;;;6.80;75.80;;;;;;5045021;28;20032;-71
2021/01/27 08:23:03;;;;;;;10.40;6.90;;;6.80;75.70;;;;;;5024032;28;20037;-69
2021/01/27 08:25:47;;;;;;;11.17;7.43;;;6.80;75.80;;;;;;5020046;28;20026;-68
2021/01/27 08:28:20;;;;;;;11.67;7.23;;;6.80;75.70;;;;;;5022914;28;20025;-69
2021/01/27 08:31:08;;;;;;;9.57;6.93;;;6.80;75.60;;;;;;5020811;28;20036;-69
2021/01/27 08:33:42;;;;;;;10.87;7.30;;;6.90;75.70;;;;;;5030838;28;20061;-69
2021/01/27 08:36:14;;;;;;;11.90;7.73;;;6.90;75.70;;;;;;5041813;28;20124;-77
2021/01/27 08:39:02;;;;;;;10.67;7.50;;;7.00;75.60;;;;;;5035254;28;20033;-69
2021/01/27 08:41:52;;;;;;;11.43;7.87;;;7.00;75.60;;;;;;5030660;28;20025;-70
2021/01/27 08:44:21;;;;;;;10.83;7.73;;;7.00;75.60;;;;;;5015230;28;20490;-69
2021/01/27 08:47:07;;;;;;;10.77;6.97;;;7.00;75.70;;;;;;5044082;28;20028;-69
2021/01/27 08:49:35;;;;;;;13.53;7.70;;;7.00;75.90;;;;;;5037919;28;20029;-69
2021/01/27 08:52:22;;;;;;;10.70;7.00;;;7.00;76.00;;;;;;5039093;28;20685;-71
2021/01/27 08:54:52;;;;;;;11.20;7.17;;;7.10;76.00;;;;;;5018245;28;20049;-69
2021/01/27 08:57:28;;;;;;;12.67;7.80;;;7.10;76.00;;;;;;5033319;28;20033;-71
2021/01/27 09:00:32;;;;;;;9.97;6.83;;;7.10;75.90;;;;;;5044611;28;20036;-68
2021/01/27 09:03:04;;;;;;;10.45;6.88;;;7.20;76.00;;;;;;5019193;28;20367;-69
2021/01/27 09:05:38;;;;;;;9.50;6.43;;;7.20;76.00;;;;;;5012613;28;20111;-71
2021/01/27 09:08:10;;;;;;;8.80;5.90;;;7.20;76.00;;;;;;5044414;28;20051;-72
2021/01/27 09:10:43;;;;;;;9.77;6.30;;;7.20;76.20;;;;;;5043281;28;20086;-70
2021/01/27 09:13:33;;;;;;;10.43;6.70;;;7.20;76.30;;;;;;5016345;28;20383;-69
2021/01/27 09:16:05;;;;;;;8.93;5.87;;;7.20;76.20;;;;;;5040487;28;20025;-69
2021/01/27 09:18:32;;;;;;;9.20;6.33;;;7.30;76.20;;;;;;5046281;28;20021;-69
2021/01/27 09:21:24;;;;;;;9.70;6.70;;;7.40;76.20;;;;;;5049175;28;20658;-69
2021/01/27 09:24:19;;;;;;;10.23;6.17;;;7.30;76.10;;;;;;5033013;28;20506;-69
2021/01/27 09:26:51;;;;;;;8.83;5.47;;;7.30;76.40;;;;;;5019502;28;20120;-69
2021/01/27 09:29:27;;;;;;;10.23;6.07;;;7.20;76.70;;;;;;5039901;28;20053;-74
2021/01/27 09:31:54;;;;;;;9.30;5.47;;;7.20;76.80;;;;;;5035126;28;20031;-68
2021/01/27 09:34:29;;;;;;;9.70;5.93;;;7.30;76.80;;;;;;5011923;28;20044;-70
2021/01/27 09:37:01;;;;;;;9.43;6.13;;;7.30;76.70;;;;;;5041485;28;20028;-69
2021/01/27 09:39:41;;;;;;;10.30;5.45;;;7.30;76.70;;;;;;5033012;28;20464;-69
2021/01/27 09:42:19;;;;;;;9.00;5.60;;;7.40;76.60;;;;;;5029179;28;20022;-69
2021/01/27 09:44:48;;;;;;;10.10;5.78;;;7.40;76.60;;;;;;5035854;28;20068;-71
2021/01/27 09:47:15;;;;;;;9.03;5.87;;;7.40;76.60;;;;;;5045773;28;20044;-72
2021/01/27 09:49:47;;;;;;;9.07;5.75;;;7.40;76.60;;;;;;5045937;28;20402;-70
2021/01/27 09:52:15;;;;;;;9.57;5.70;;;7.50;76.60;;;;;;5031126;28;20048;-75
2021/01/27 09:54:48;;;;;;;11.40;6.38;;;7.50;76.70;;;;;;5024489;28;20491;-69
2021/01/27 09:57:15;;;;;;;;;;;7.40;77.20;;;;;;5050395;28;20447;-69
2021/01/27 09:59:41;;;;;;;10.70;7.20;;;7.50;76.70;;;;;;5049144;28;20358;-72
2021/01/27 10:02:11;;;;;;;10.75;7.15;;;7.50;76.70;;;;;;5045130;28;20482;-70
2021/01/27 10:04:38;;;;;;;12.82;7.38;;;7.50;76.80;;;;;;5029120;28;20121;-69
2021/01/27 10:07:21;;;;;;;12.93;8.30;;;7.60;76.80;;;;;;5053220;28;20037;-69
2021/01/27 10:09:50;;;;;;;16.63;9.57;;;7.60;76.80;;;;;;5043033;28;20028;-69
2021/01/27 10:12:28;;;;;;;20.30;11.03;;;7.60;77.00;;;;;;5041720;28;20087;-69
2021/01/27 10:15:13;;;;;;;18.43;10.93;;;7.60;76.90;;;;;;5043378;28;20499;-69
2021/01/27 10:17:38;;;;;;;16.10;9.23;;;7.60;76.80;;;;;;5013339;28;20476;-70
2021/01/27 10:20:06;;;;;;;12.93;8.38;;;7.70;76.80;;;;;;5041168;28;20147;-69
2021/01/27 10:22:40;;;;;;;10.83;7.17;;;7.70;76.70;;;;;;5045674;28;20036;-69
2021/01/27 10:25:31;;;;;;;12.57;7.20;;;7.80;76.80;;;;;;5027422;28;20171;-71
2021/01/27 10:28:05;;;;;;;10.90;7.53;;;7.80;76.70;;;;;;5044664;28;20025;-69
2021/01/27 10:30:30;;;;;;;13.15;8.77;;;7.80;76.70;;;;;;5042772;28;20455;-70
2021/01/27 10:32:56;;;;;;;10.70;7.33;;;7.80;76.80;;;;;;5039225;28;20058;-70
2021/01/27 10:35:22;;;;;;;12.55;8.75;;;7.80;76.90;;;;;;5037437;28;20033;-69
2021/01/27 10:38:01;;;;;;;12.70;7.75;;;7.80;77.00;;;;;;5033673;28;20044;-69
2021/01/27 10:40:31;;;;;;;13.82;8.68;;;7.80;77.10;;;;;;5017234;28;20044;-69
2021/01/27 10:43:03;;;;;;;14.50;9.55;;;7.80;77.10;;;;;;5031920;28;20184;-69
2021/01/27 10:45:38;;;;;;;13.43;8.80;;;7.80;76.90;;;;;;5027777;28;20111;-69
2021/01/27 10:48:13;;;;;;;14.93;9.93;;;7.80;77.10;;;;;;5036853;28;20484;-69
2021/01/27 10:50:48;;;;;;;14.07;9.13;;;7.80;77.20;;;;;;5048610;28;20387;-70
2021/01/27 10:53:16;;;;;;;14.27;10.13;;;7.80;77.30;;;;;;5041896;28;20028;-69
2021/01/27 10:55:46;;;;;;;15.27;9.55;;;7.80;77.30;;;;;;5052763;28;20037;-69
2021/01/27 10:58:15;;;;;;;14.68;9.90;;;7.90;77.40;;;;;;5033359;28;20112;-70
2021/01/27 11:00:41;;;;;;;14.98;9.35;;;7.80;77.40;;;;;;5032170;28;20029;-69
2021/01/27 11:03:08;;;;;;;15.88;10.40;;;7.90;77.40;;;;;;5034672;28;20033;-69
2021/01/27 11:05:34;;;;;;;16.35;10.68;;;8.00;77.40;;;;;;5040848;28;20036;-74
2021/01/27 11:08:01;;;;;;;16.00;9.45;;;8.10;77.30;;;;;;5047096;28;20499;-69
2021/01/27 11:10:27;;;;;;;16.10;11.23;;;8.10;77.20;;;;;;5045560;28;20544;-70
2021/01/27 11:12:53;;;;;;;17.60;11.13;;;8.10;77.30;;;;;;5025897;28;20128;-68
2021/01/27 11:15:19;;;;;;;17.48;12.02;;;8.10;77.50;;;;;;5039200;28;20041;-69
2021/01/27 11:17:47;;;;;;;17.10;11.65;;;8.00;77.80;;;;;;5048007;28;20036;-72
2021/01/27 11:20:13;;;;;;;16.17;10.52;;;8.00;77.80;;;;;;5048810;28;20040;-69
2021/01/27 11:22:39;;;;;;;17.85;11.82;;;8.10;78.20;;;;;;5051983;28;20057;-71
2021/01/27 11:25:05;;;;;;;18.02;10.63;;;8.10;78.10;;;;;;5019113;28;20068;-72
2021/01/27 11:27:30;;;;;;;21.23;11.73;;;8.20;77.90;;;;;;5016484;28;20030;-69
2021/01/27 11:29:56;;;;;;;16.00;10.35;;;8.20;77.70;;;;;;5018105;28;20047;-69
2021/01/27 11:32:22;;;;;;;17.63;11.85;;;8.30;77.80;;;;;;5040376;28;20040;-69
2021/01/27 11:34:47;;;;;;;18.17;11.20;;;8.30;77.70;;;;;;5030972;28;20521;-70
2021/01/27 11:37:14;;;;;;;19.48;11.63;;;8.30;77.60;;;;;;5034721;28;20029;-70
2021/01/27 11:39:39;;;;;;;17.98;10.93;;;8.40;77.70;;;;;;5031877;28;20030;-69
2021/01/27 11:42:05;;;;;;;18.83;11.27;;;8.30;77.80;;;;;;5032966;28;20368;-69
2021/01/27 11:44:31;;;;;;;17.52;11.80;;;8.30;78.10;;;;;;5035471;28;20383;-70
2021/01/27 11:46:56;;;;;;;19.35;12.70;;;8.30;78.10;;;;;;5049624;28;20033;-69
2021/01/27 11:49:23;;;;;;;19.55;13.00;;;8.30;78.30;;;;;;5006273;28;20116;-69
2021/01/27 11:51:48;;;;;;;19.17;12.50;;;8.30;78.40;;;;;;5029099;28;20057;-69
2021/01/27 11:54:14;;;;;;;18.90;11.85;;;8.30;78.40;;;;;;5047179;28;20061;-71
2021/01/27 11:56:41;;;;;;;18.85;12.10;;;8.40;78.40;;;;;;5049025;28;20037;-69
2021/01/27 11:59:07;;;;;;;20.38;13.25;;;8.40;78.30;;;;;;5014956;28;20125;-69
2021/01/27 12:01:35;;;;;;;20.38;13.15;;;8.40;78.50;;;;;;5041138;28;20139;-71
2021/01/27 12:04:02;;;;;;;20.90;12.90;;;8.40;78.60;;;;;;5036183;28;20036;-69
2021/01/27 12:06:27;;;;;;;22.88;14.55;;;8.40;78.70;;;;;;5049669;28;20083;-69
2021/01/27 12:08:53;;;;;;;22.25;14.65;;;8.50;78.60;;;;;;5046735;28;20033;-69
2021/01/27 12:11:18;;;;;;;19.95;13.75;;;8.50;78.70;;;;;;5044538;28;20087;-69
2021/01/27 12:13:44;;;;;;;22.05;14.30;;;8.50;78.80;;;;;;5046364;28;20486;-69
2021/01/27 12:16:10;;;;;;;22.45;13.80;;;8.50;78.90;;;;;;5035863;28;20116;-72
2021/01/27 12:18:35;;;;;;;24.00;15.82;;;8.60;78.90;;;;;;5025898;28;20041;-69
2021/01/27 12:21:01;;;;;;;26.50;14.07;;;8.60;79.00;;;;;;5024843;28;20037;-69
2021/01/27 12:23:26;;;;;;;24.60;15.57;;;8.60;79.00;;;;;;5015732;28;20482;-69
2021/01/27 12:25:52;;;;;;;23.55;14.50;;;8.70;78.90;;;;;;5025182;28;20128;-69
2021/01/27 12:28:18;;;;;;;24.38;16.10;;;8.70;78.80;;;;;;5043935;28;20036;-69
2021/01/27 12:30:44;;;;;;;24.70;15.98;;;8.70;78.70;;;;;;5029066;28;20037;-71
2021/01/27 12:33:10;;;;;;;24.10;16.13;;;8.80;78.70;;;;;;5020862;28;20493;-69
2021/01/27 12:35:35;;;;;;;25.55;15.68;;;8.80;78.60;;;;;;5034314;28;20097;-69
2021/01/27 12:38:02;;;;;;;28.42;16.88;;;8.80;78.60;;;;;;5048148;28;20457;-71
2021/01/27 12:40:28;;;;;;;26.95;18.02;;;8.90;78.70;;;;;;5013061;28;20086;-70
2021/01/27 12:42:54;;;;;;;25.27;16.65;;;8.80;78.70;;;;;;5041126;28;20491;-69
2021/01/27 12:45:26;;;;;;;27.40;17.13;;;8.90;78.70;;;;;;5026204;28;20032;-68
2021/01/27 12:47:53;;;;;;;28.50;17.20;;;8.90;78.90;;;;;;5048853;28;20033;-70
2021/01/27 12:50:20;;;;;;;27.17;19.02;;;8.90;78.90;;;;;;5007361;28;20029;-71
2021/01/27 12:52:45;;;;;;;30.02;17.83;;;9.00;78.70;;;;;;5026508;28;20056;-72
2021/01/27 12:55:14;;;;;;;25.30;16.33;;;9.00;78.50;;;;;;5014278;28;20038;-69
2021/01/27 12:57:45;;;;;;;26.38;17.65;;;9.10;78.40;;;;;;5017962;28;20025;-70
2021/01/27 13:00:19;;;;;;;29.15;18.10;;;9.20;78.20;;;;;;5022979;28;20040;-70
2021/01/27 13:02:46;;;;;;;25.33;17.13;;;9.20;78.00;;;;;;5042601;28;20067;-69
2021/01/27 13:05:12;;;;;;;26.33;16.55;;;9.20;78.00;;;;;;5014787;28;20037;-70
2021/01/27 13:07:38;;;;;;;28.48;17.95;;;9.20;78.10;;;;;;5036544;28;20921;-70
2021/01/27 13:10:08;;;;;;;28.30;18.70;;;9.20;78.30;;;;;;5059864;28;20115;-73
2021/01/27 13:12:34;;;;;;;24.77;15.68;;;9.20;78.40;;;;;;5050406;28;20032;-69
2021/01/27 13:15:00;;;;;;;27.13;16.83;;;9.20;78.40;;;;;;5053732;28;20039;-69
2021/01/27 13:17:26;;;;;;;28.88;18.92;;;9.30;78.30;;;;;;5058363;28;20040;-69
2021/01/27 13:19:51;;;;;;;26.58;16.35;;;9.30;78.40;;;;;;5057796;28;20116;-69
2021/01/27 13:22:17;;;;;;;29.67;16.45;;;9.30;78.40;;;;;;5068051;28;20032;-69